Tropical Cyclones
[Index]
Main Index Home Page Stock Weather Photos Extreme Storms Discussion Storm News and Storm Chasing Reports Tropical Cyclones / Hurricanes / Typhoons Weather Data and Links Wild Fires / Bushfires Weather Observation Techniques Weather Picture Catalogue Tornado Pictures and Reports Stock Video Footage and DVDs for sale
Season 1997-1998 Tropical Cyclone SELWYN Track Map
Season 1997-1998 Summaries: [BoM-AU] [JTWC-AU] [JTWC-SIO] [JTWC-SPAC] [JTWC-SH]
<<- Previous TC | JTWC 1997-1998 Season | Next TC ->>

click for intensity scale information  Lat/long Grid: Show Hide

 Date Labels: Show Hide

Joint Typhoon Warning Centre Cyclone Data

Name: SELWYN

25 Dec 1997 18:00 UTC to 02 Jan 1998 18:00 UTC

    date/time    lat    long     hPa   cat  kts
1997-12-25 18   12.0   111.0                  20          
1997-12-26 00   12.1   111.5                  25          
1997-12-26 06   12.5   111.9                  25          
1997-12-26 12   12.8   111.8                  30          
1997-12-26 18   13.3   111.6                  30          
1997-12-27 00   13.9   111.1                  35          
1997-12-27 06   14.5   110.5            1     45          
1997-12-27 12   14.9   110.0            2     65          
1997-12-27 18   15.3   109.4            2     60          
1997-12-28 00   15.6   108.9            2     65          
1997-12-28 06   15.9   108.4            2     65          
1997-12-28 12   16.3   107.8            2     65          
1997-12-28 18   16.8   107.3            2     65          
1997-12-29 00   17.1   106.5            2     65          
1997-12-29 06   17.4   105.6            2     60          
1997-12-29 12   17.5   104.7            1     50          
1997-12-29 18   17.4   103.9            1     45          
1997-12-30 00   17.1   103.0            1     45          
1997-12-30 06   16.9   102.1            1     45          
1997-12-30 12   16.6   101.4            1     40          
1997-12-30 18   16.5   100.7                  35          
1997-12-31 00   16.4   100.0                  35          
1997-12-31 06   16.3    99.2                  35          
1997-12-31 12   16.3    98.2                  35          
1997-12-31 18   16.3    97.2                  35          
1998-01-01 00   16.4    96.2                  30          
1998-01-01 06   16.6    95.2                  25          
1998-01-01 12   16.8    94.3                  25          
1998-01-01 18   17.3    93.3                  30          
1998-01-02 00   17.6    91.9                  25          
1998-01-02 06   18.3    90.7                  25          
1998-01-02 12   18.9    89.8                  25          
1998-01-02 18   19.4    89.0                  25          
Winds are 1-min average.

Tropical cyclone tracks developed by Michael Bath using data from the Joint Typhoon Warning Centre Best Tracks and Google Maps.


[Australian Severe Weather index] [Copyright Notice] [Email Contacts] [Search This Site] [Privacy Policy]
Document: tropical_cyclone_selwyn.htm Updated: 18 September 2016